Time;durP1;ratioP1;P1;durP2;ratioP2;P2;SDS_P1;SDS_P2;PMS_P1;PMS_P2;Temp;Humidity;BMP_temperature;BMP_pressure;BME280_temperature;BME280_humidity;BME280_pressure;Samples;Min_cycle;Max_cycle;Signal;HPM_P1;HPM_P2
2022/12/24 00:00:07;;;;;;;32.40;22.00;;;;;;;6.32;97.70;97815.20;2287076;78;21259;-84
2022/12/24 00:03:08;;;;;;;30.33;20.97;;;;;;;6.29;97.33;97818.17;2285937;78;20935;-84
2022/12/24 00:06:08;;;;;;;27.60;20.77;;;;;;;6.26;97.08;97811.23;2285178;78;20985;-85
2022/12/24 00:09:09;;;;;;;27.47;19.53;;;;;;;6.17;96.54;97803.77;2285035;78;20896;-84
2022/12/24 00:12:09;;;;;;;28.83;19.20;;;;;;;6.18;97.13;97805.09;2285882;78;20899;-83
2022/12/24 00:15:09;;;;;;;26.40;18.93;;;;;;;6.13;96.30;97804.16;2286199;78;21348;-83
2022/12/24 00:18:10;;;;;;;23.70;19.23;;;;;;;6.07;96.28;97798.91;2285940;78;20954;-83
2022/12/24 00:21:10;;;;;;;31.83;19.93;;;;;;;5.99;96.29;97803.08;2285635;78;20951;-81
2022/12/24 00:24:11;;;;;;;28.10;20.17;;;;;;;5.94;95.84;97803.44;2286015;78;20953;-84
2022/12/24 00:27:11;;;;;;;28.17;20.83;;;;;;;5.83;95.26;97801.09;2285944;78;20931;-84
2022/12/24 00:30:11;;;;;;;29.47;21.80;;;;;;;5.72;95.75;97795.34;2286053;78;20958;-85
2022/12/24 00:33:12;;;;;;;30.10;21.10;;;;;;;5.65;96.19;97799.13;2285336;78;21389;-85
2022/12/24 00:36:12;;;;;;;28.33;20.97;;;;;;;5.60;95.73;97794.30;2301424;77;20980;-84
2022/12/24 00:39:13;;;;;;;28.70;20.80;;;;;;;5.56;96.29;97790.80;2304207;77;21274;-84
2022/12/24 00:42:13;;;;;;;27.03;20.50;;;;;;;5.53;96.45;97794.64;2304184;77;20976;-85
2022/12/24 00:45:13;;;;;;;27.37;19.47;;;;;;;5.45;96.05;97785.89;2304448;77;20946;-85
2022/12/24 00:48:14;;;;;;;23.60;18.53;;;;;;;5.41;96.27;97782.81;2304154;77;20954;-84
2022/12/24 00:51:14;;;;;;;29.80;19.83;;;;;;;5.39;96.44;97776.31;2304011;77;20936;-84
2022/12/24 00:54:15;;;;;;;24.47;18.57;;;;;;;5.35;96.37;97776.24;2304475;77;20953;-83
2022/12/24 00:57:15;;;;;;;24.77;18.40;;;;;;;5.33;96.54;97779.23;2305440;77;20869;-83
2022/12/24 01:00:16;;;;;;;24.00;17.53;;;;;;;5.32;96.29;97782.24;2304997;77;20981;-84
2022/12/24 01:03:16;;;;;;;21.70;17.60;;;;;;;5.26;95.40;97776.97;2303044;77;21325;-85
2022/12/24 01:06:16;;;;;;;20.60;17.10;;;;;;;5.22;96.10;97776.91;2302503;77;20977;-85
2022/12/24 01:09:16;;;;;;;23.00;17.17;;;;;;;5.24;96.33;97781.68;2302787;77;20989;-85
2022/12/24 01:12:17;;;;;;;22.13;16.23;;;;;;;5.23;95.98;97780.81;2302837;77;20993;-85
2022/12/24 01:15:17;;;;;;;19.50;15.27;;;;;;;5.20;95.86;97781.15;2303464;77;20965;-84
2022/12/24 01:18:18;;;;;;;17.80;14.77;;;;;;;5.20;95.91;97766.92;2304525;77;20972;-85
2022/12/24 01:21:18;;;;;;;22.63;18.07;;;;;;;5.12;95.62;97771.97;2304244;77;21024;-85
2022/12/24 01:24:18;;;;;;;27.43;19.83;;;;;;;5.11;96.17;97772.39;2304566;77;20938;-84
2022/12/24 01:27:22;;;;;;;23.07;15.87;;;;;;;5.10;95.88;97770.66;2304732;77;21344;-84
2022/12/24 01:30:22;;;;;;;19.23;15.00;;;;;;;5.04;95.50;97774.86;2304651;77;20916;-84
2022/12/24 01:33:23;;;;;;;19.80;15.10;;;;;;;5.03;95.70;97772.70;2304378;77;20988;-83
2022/12/24 01:36:23;;;;;;;18.73;14.73;;;;;;;5.04;96.45;97766.67;2315425;77;20959;-84
2022/12/24 01:39:23;;;;;;;22.17;14.70;;;;;;;5.06;96.37;97770.16;2317715;77;21321;-84
2022/12/24 01:45:42;;;;;;;21.43;14.23;;;;;;;5.07;97.42;97764.14;2318187;77;21007;-84
2022/12/24 01:48:43;;;;;;;17.70;14.63;;;;;;;5.09;96.80;97758.56;2317904;77;20970;-84
2022/12/24 01:51:44;;;;;;;24.93;17.20;;;;;;;5.06;96.45;97758.94;2317790;77;20954;-84
2022/12/24 01:54:44;;;;;;;24.90;18.77;;;;;;;5.05;96.87;97761.95;2317992;77;20959;-85
2022/12/24 01:57:44;;;;;;;21.17;16.53;;;;;;;5.09;97.89;97754.69;2317752;77;20939;-85
2022/12/24 02:00:44;;;;;;;17.43;13.73;;;;;;;5.10;97.48;97755.13;2317843;77;20912;-85
2022/12/24 02:03:45;;;;;;;20.57;15.77;;;;;;;5.08;96.70;97752.95;2317173;77;20919;-84
2022/12/24 02:06:45;;;;;;;24.87;18.53;;;;;;;5.07;97.12;97749.91;2317549;77;21062;-84
2022/12/24 02:09:46;;;;;;;20.57;15.97;;;;;;;5.08;97.62;97753.37;2317888;77;21291;-85
2022/12/24 02:12:46;;;;;;;28.10;18.67;;;;;;;5.06;97.46;97739.13;2317840;77;20966;-84
2022/12/24 02:15:46;;;;;;;24.00;18.00;;;;;;;5.07;97.75;97736.11;2317326;77;20959;-85
2022/12/24 02:18:47;;;;;;;24.90;19.20;;;;;;;5.06;97.49;97736.53;2317839;77;20935;-85
2022/12/24 02:21:47;;;;;;;24.97;18.30;;;;;;;5.06;97.81;97739.55;2317619;77;20951;-85
2022/12/24 02:24:48;;;;;;;22.27;17.33;;;;;;;5.07;97.89;97737.41;2317816;77;20888;-85
2022/12/24 02:27:48;;;;;;;22.23;16.73;;;;;;;5.10;98.20;97737.03;2317636;77;20914;-85
2022/12/24 02:30:48;;;;;;;27.40;19.60;;;;;;;5.11;97.79;97732.30;2317777;77;20959;-84
2022/12/24 02:33:49;;;;;;;20.00;16.50;;;;;;;5.09;98.41;97732.70;2317325;77;20994;-85
2022/12/24 02:36:49;;;;;;;24.87;18.63;;;;;;;5.08;97.80;97735.27;2287124;77;21394;-84
2022/12/24 02:39:49;;;;;;;27.73;19.90;;;;;;;5.10;98.50;97731.86;2286289;78;20966;-84
2022/12/24 02:42:50;;;;;;;26.03;18.40;;;;;;;5.11;98.90;97727.13;2286181;78;20974;-84
2022/12/24 02:45:50;;;;;;;33.33;25.17;;;;;;;5.18;98.70;97728.09;2286172;78;20903;-84
2022/12/24 02:48:51;;;;;;;28.83;21.47;;;;;;;5.18;98.28;97738.44;2286074;78;21078;-85
2022/12/24 02:51:51;;;;;;;26.60;19.93;;;;;;;5.20;98.40;97748.42;2285957;78;20974;-85
2022/12/24 02:54:51;;;;;;;20.13;16.67;;;;;;;5.20;98.03;97755.28;2285727;78;21304;-84
2022/12/24 02:57:52;;;;;;;23.90;18.60;;;;;;;5.20;98.32;97752.30;2286100;78;20930;-85
2022/12/24 03:00:52;;;;;;;28.00;18.87;;;;;;;5.18;97.42;97753.09;2286208;78;20927;-85
2022/12/24 03:03:53;;;;;;;26.27;19.60;;;;;;;5.18;97.80;97756.97;2286258;78;20935;-83
2022/12/24 03:06:53;;;;;;;23.43;18.40;;;;;;;5.22;98.13;97758.79;2286461;78;20990;-82
2022/12/24 03:09:53;;;;;;;34.93;24.97;;;;;;;5.23;97.56;97759.23;2286265;78;20927;-82
2022/12/24 03:12:54;;;;;;;25.83;19.80;;;;;;;5.23;97.10;97763.13;2285971;78;20978;-83
2022/12/24 03:15:54;;;;;;;20.83;15.97;;;;;;;5.21;96.93;97764.39;2285745;78;20891;-83
2022/12/24 03:18:55;;;;;;;24.43;18.63;;;;;;;5.21;96.60;97769.98;2285655;78;20938;-86
2022/12/24 03:21:55;;;;;;;35.17;23.67;;;;;;;5.14;96.12;97771.58;2284990;78;20931;-86
2022/12/24 03:24:56;;;;;;;31.00;21.37;;;;;;;5.09;96.08;97768.05;2284742;78;21361;-85
2022/12/24 03:27:56;;;;;;;28.30;19.87;;;;;;;5.04;96.12;97757.63;2284966;78;20934;-86
2022/12/24 03:30:56;;;;;;;20.40;15.10;;;;;;;5.02;96.58;97744.22;2284849;78;20934;-86
2022/12/24 03:33:57;;;;;;;25.27;18.63;;;;;;;4.99;96.44;97738.58;2285141;78;21391;-86
2022/12/24 03:36:57;;;;;;;22.87;16.40;;;;;;;4.97;97.19;97733.80;2286090;76;20955;-83
2022/12/24 03:39:57;;;;;;;19.80;15.67;;;;;;;4.93;96.99;97737.19;2285995;78;20923;-84
2022/12/24 03:42:58;;;;;;;19.43;14.90;;;;;;;4.93;97.60;97746.66;2285908;78;20951;-83
2022/12/24 03:45:58;;;;;;;20.53;17.17;;;;;;;4.92;97.89;97744.92;2285696;78;20990;-83
2022/12/24 03:48:59;;;;;;;21.87;17.03;;;;;;;4.93;98.25;97751.41;2286092;78;20943;-82
2022/12/24 03:51:59;;;;;;;26.53;17.53;;;;;;;4.97;98.66;97749.31;2286027;78;20919;-83
2022/12/24 03:54:59;;;;;;;22.20;16.73;;;;;;;5.00;98.44;97758.42;2285932;78;20915;-84
2022/12/24 03:58:00;;;;;;;23.53;17.10;;;;;;;5.04;98.58;97757.63;2286328;78;20915;-80
2022/12/24 04:01:00;;;;;;;25.23;18.43;;;;;;;5.08;98.72;97755.53;2286376;78;21262;-85
2022/12/24 04:04:01;;;;;;;25.50;17.27;;;;;;;5.13;98.77;97751.72;2285123;78;20923;-86
2022/12/24 04:07:01;;;;;;;25.57;17.77;;;;;;;5.16;98.78;97750.91;2284889;78;20958;-86
2022/12/24 04:10:01;;;;;;;20.33;15.33;;;;;;;5.17;98.46;97748.77;2285075;78;21263;-86
2022/12/24 04:13:02;;;;;;;22.40;16.30;;;;;;;5.11;97.63;97740.06;2285225;78;20962;-85
2022/12/24 04:16:02;;;;;;;29.80;23.03;;;;;;;5.08;97.79;97746.91;2286549;78;20923;-84
2022/12/24 04:19:03;;;;;;;36.87;24.10;;;;;;;5.05;98.19;97743.84;2286595;78;21307;-84
2022/12/24 04:22:03;;;;;;;24.20;19.20;;;;;;;5.03;98.56;97736.91;2285408;78;20934;-85
2022/12/24 04:25:03;;;;;;;24.03;18.53;;;;;;;5.03;98.55;97728.73;2285397;78;20923;-86
2022/12/24 04:28:04;;;;;;;24.97;19.17;;;;;;;5.03;98.73;97723.55;2285478;78;21331;-85
2022/12/24 04:31:04;;;;;;;23.10;18.30;;;;;;;5.05;98.98;97723.16;2284977;78;20974;-85
2022/12/24 04:34:05;;;;;;;23.67;18.50;;;;;;;5.06;98.92;97719.72;2285647;78;20927;-84
2022/12/24 04:37:05;;;;;;;26.13;19.00;;;;;;;5.07;99.24;97719.30;2300708;77;21363;-85
2022/12/24 04:40:05;;;;;;;23.83;18.93;;;;;;;5.08;99.32;97716.73;2303484;77;20932;-85
2022/12/24 04:43:06;;;;;;;25.83;18.23;;;;;;;5.12;99.37;97723.70;2302856;77;21368;-85
2022/12/24 04:46:06;;;;;;;26.30;19.63;;;;;;;5.12;99.16;97735.34;2303582;77;20949;-85
2022/12/24 04:49:07;;;;;;;28.37;20.40;;;;;;;5.10;99.45;97729.69;2304149;77;20901;-85
2022/12/24 04:52:07;;;;;;;27.03;19.73;;;;;;;5.07;99.46;97729.64;2303399;77;20949;-84
2022/12/24 04:55:07;;;;;;;25.97;19.17;;;;;;;5.04;99.70;97723.13;2303741;77;20993;-85
2022/12/24 04:58:08;;;;;;;27.13;19.60;;;;;;;5.04;99.79;97725.72;2303444;77;20982;-84
2022/12/24 05:01:08;;;;;;;27.47;20.10;;;;;;;5.07;99.79;97727.92;2302971;77;20930;-85
2022/12/24 05:04:10;;;;;;;27.70;20.03;;;;;;;5.07;99.66;97732.23;2303401;77;20942;-85
2022/12/24 05:07:09;;;;;;;23.63;18.37;;;;;;;5.07;99.92;97736.11;2303190;77;21024;-85
2022/12/24 05:10:10;;;;;;;26.67;19.60;;;;;;;5.06;99.80;97728.77;2304122;77;20894;-84
2022/12/24 05:13:10;;;;;;;27.30;20.93;;;;;;;5.03;99.60;97742.95;2305038;77;21017;-84
2022/12/24 05:16:10;;;;;;;35.30;25.93;;;;;;;5.06;99.81;97732.66;2304958;77;21321;-85
2022/12/24 05:19:10;;;;;;;26.97;20.20;;;;;;;5.07;99.84;97726.63;2303602;77;20898;-84
2022/12/24 05:28:49;;;;;;;22.83;17.13;;;;;;;5.10;99.69;97721.93;2304114;77;20989;-85
2022/12/24 05:31:49;;;;;;;22.23;16.83;;;;;;;5.09;99.37;97734.41;2303709;77;21400;-85
2022/12/24 05:34:49;;;;;;;22.87;17.13;;;;;;;5.10;99.39;97729.69;2302045;76;20889;-85
2022/12/24 05:37:50;;;;;;;23.27;17.40;;;;;;;5.09;99.24;97724.94;2284982;78;20943;-85
2022/12/24 05:40:50;;;;;;;21.37;16.97;;;;;;;5.09;99.33;97729.24;2285477;78;20922;-84
2022/12/24 05:43:50;;;;;;;24.57;18.03;;;;;;;5.07;99.03;97727.92;2285817;78;20943;-85
2022/12/24 05:46:51;;;;;;;23.10;17.03;;;;;;;5.09;99.27;97731.41;2286055;78;21302;-85
2022/12/24 05:49:51;;;;;;;49.60;34.70;;;;;;;5.16;99.40;97730.20;2286308;78;20935;-85
2022/12/24 05:52:52;;;;;;;21.60;16.93;;;;;;;5.19;99.37;97728.96;2285602;78;20899;-85
2022/12/24 05:55:52;;;;;;;18.13;14.30;;;;;;;5.21;99.29;97724.71;2285587;78;21319;-86
2022/12/24 05:58:53;;;;;;;16.60;14.13;;;;;;;5.22;98.65;97732.92;2285464;78;20923;-85
2022/12/24 06:01:53;;;;;;;14.87;12.67;;;;;;;5.19;98.36;97734.13;2285124;78;20935;-86
2022/12/24 06:04:53;;;;;;;18.53;14.40;;;;;;;5.15;97.56;97740.11;2285125;78;21341;-85
2022/12/24 06:07:54;;;;;;;15.67;13.17;;;;;;;5.09;98.12;97733.99;2285071;78;20891;-87
2022/12/24 06:10:54;;;;;;;17.60;13.17;;;;;;;5.05;97.76;97745.14;2285687;78;20982;-84
2022/12/24 06:13:56;;;;;;;16.90;13.90;;;;;;;5.04;97.85;97739.52;2256586;78;20926;-85
2022/12/24 06:16:57;;;;;;;16.07;13.30;;;;;;;5.06;97.87;97740.41;2285406;78;21006;-85
2022/12/24 06:19:57;;;;;;;17.43;12.33;;;;;;;5.07;98.31;97742.58;2286066;78;20939;-86
2022/12/24 06:22:58;;;;;;;16.23;13.73;;;;;;;5.05;98.10;97742.55;2285826;78;21341;-86
2022/12/24 06:25:59;;;;;;;16.47;14.63;;;;;;;5.01;98.32;97741.19;2285781;78;20962;-86
2022/12/24 06:28:58;;;;;;;17.90;13.17;;;;;;;5.02;98.58;97746.80;2286165;78;20950;-85
2022/12/24 06:31:59;;;;;;;18.97;14.83;;;;;;;5.03;98.50;97753.72;2286350;78;21026;-86
2022/12/24 06:34:59;;;;;;;16.53;13.50;;;;;;;5.03;98.53;97755.02;2286214;77;20978;-85
2022/12/24 06:38:00;;;;;;;16.53;12.20;;;;;;;5.03;98.16;97757.17;2303035;77;21385;-86
2022/12/24 06:41:00;;;;;;;15.37;12.07;;;;;;;5.00;97.57;97760.13;2303736;77;20969;-85
2022/12/24 06:44:00;;;;;;;15.90;12.90;;;;;;;4.96;97.27;97764.81;2304070;77;21327;-85
2022/12/24 06:47:01;;;;;;;16.33;13.07;;;;;;;4.91;97.42;97760.86;2304028;77;20925;-84
2022/12/24 06:50:01;;;;;;;17.00;12.87;;;;;;;4.91;97.81;97762.56;2304063;77;20925;-84
2022/12/24 06:53:04;;;;;;;16.33;12.40;;;;;;;4.90;98.16;97758.24;2303889;77;21011;-84
2022/12/24 06:56:05;;;;;;;18.93;14.00;;;;;;;4.89;97.90;97758.66;2303918;77;20966;-83
2022/12/24 06:59:05;;;;;;;16.70;13.40;;;;;;;4.89;98.41;97763.84;2303584;77;21285;-84
2022/12/24 07:02:06;;;;;;;14.33;12.60;;;;;;;4.92;98.37;97769.06;2303869;77;20893;-84
2022/12/24 07:05:07;;;;;;;18.80;13.97;;;;;;;4.93;98.43;97767.34;2303143;77;21428;-84
2022/12/24 07:08:06;;;;;;;19.70;14.43;;;;;;;4.97;99.00;97772.59;2262815;78;21310;-84
2022/12/24 07:11:07;;;;;;;15.17;12.53;;;;;;;5.02;99.01;97777.42;2281912;78;20962;-85
2022/12/24 07:14:07;;;;;;;17.80;13.07;;;;;;;5.05;98.35;97783.94;2281968;78;20966;-85
2022/12/24 07:17:07;;;;;;;13.17;11.27;;;;;;;5.04;97.68;97765.80;2281852;78;21020;-84
2022/12/24 07:20:08;;;;;;;14.43;12.00;;;;;;;5.03;97.61;97779.58;2282176;78;20973;-84
2022/12/24 07:23:08;;;;;;;14.13;12.60;;;;;;;5.06;97.79;97773.17;2282107;78;20942;-84
2022/12/24 07:26:09;;;;;;;13.93;12.43;;;;;;;5.07;97.92;97778.36;2282012;78;20891;-85
2022/12/24 07:29:09;;;;;;;18.03;13.97;;;;;;;5.10;97.61;97774.53;2282375;78;21041;-84
2022/12/24 07:32:10;;;;;;;17.37;13.63;;;;;;;5.10;97.54;97778.84;2282606;78;20950;-84
2022/12/24 07:35:10;;;;;;;16.53;11.93;;;;;;;5.16;98.09;97776.34;2282425;78;20933;-83
2022/12/24 07:38:10;;;;;;;16.97;13.93;;;;;;;5.20;97.98;97781.15;2281958;78;20970;-83
2022/12/24 07:41:11;;;;;;;14.63;12.43;;;;;;;5.20;98.23;97782.05;2282581;78;20899;-83
2022/12/24 07:44:12;;;;;;;13.17;11.40;;;;;;;5.23;98.21;97782.52;2282363;78;20929;-84
2022/12/24 07:47:11;;;;;;;12.23;10.63;;;;;;;5.23;97.67;97785.98;2282417;78;20969;-84
2022/12/24 07:50:12;;;;;;;13.77;10.03;;;;;;;5.23;97.46;97782.52;2282232;78;20977;-83
2022/12/24 07:53:12;;;;;;;11.87;10.67;;;;;;;5.24;96.96;97788.14;2281932;78;20953;-83
2022/12/24 07:56:13;;;;;;;14.40;11.37;;;;;;;5.22;96.72;97791.13;2281933;78;20930;-84
2022/12/24 07:59:13;;;;;;;11.33;10.13;;;;;;;5.19;96.61;97791.05;2282050;78;20946;-83
2022/12/24 08:02:13;;;;;;;16.47;10.10;;;;;;;5.15;96.58;97790.13;2281833;78;20997;-84
2022/12/24 08:05:14;;;;;;;15.33;10.67;;;;;;;5.14;97.02;97794.85;2282565;78;20969;-84
2022/12/24 08:08:14;;;;;;;11.73;10.37;;;;;;;5.17;97.13;97796.63;2282014;78;20973;-86
2022/12/24 08:11:15;;;;;;;11.57;9.83;;;;;;;5.15;97.15;97797.02;2282446;78;20938;-85
2022/12/24 08:14:18;;;;;;;11.13;9.63;;;;;;;5.15;97.01;97799.61;2281988;77;20969;-85
2022/12/24 08:17:18;;;;;;;11.60;9.47;;;;;;;5.13;97.23;97800.45;2281534;77;21258;-85
2022/12/24 08:20:19;;;;;;;11.23;9.67;;;;;;;5.15;96.97;97803.06;2281644;78;21329;-85
2022/12/24 08:23:19;;;;;;;9.97;8.97;;;;;;;5.16;96.83;97806.09;2281682;77;20942;-84
2022/12/24 08:26:19;;;;;;;12.97;10.97;;;;;;;5.21;96.91;97812.67;2281444;78;20978;-84
2022/12/24 08:29:20;;;;;;;9.83;8.67;;;;;;;5.24;96.62;97816.61;2281593;78;21057;-84
2022/12/24 08:32:20;;;;;;;13.37;9.37;;;;;;;5.22;96.39;97817.00;2281100;78;20989;-84
2022/12/24 08:35:21;;;;;;;10.93;9.67;;;;;;;5.21;96.77;97821.73;2281778;77;21025;-83
2022/12/24 08:38:21;;;;;;;10.87;9.37;;;;;;;5.19;96.88;97827.27;2301611;77;20984;-85
2022/12/24 08:41:21;;;;;;;13.00;9.57;;;;;;;5.21;96.93;97832.95;2302058;77;20896;-86
2022/12/24 08:44:22;;;;;;;12.23;9.60;;;;;;;5.24;97.22;97838.59;2302183;77;21264;-84
2022/12/24 08:47:22;;;;;;;31.87;17.73;;;;;;;5.25;97.13;97839.91;2302454;77;20948;-84
2022/12/24 08:50:23;;;;;;;24.00;17.57;;;;;;;5.28;99.29;97845.56;2302837;77;20900;-82
2022/12/24 08:53:23;;;;;;;28.67;17.90;;;;;;;5.49;100.00;97847.20;2302643;77;21379;-82
2022/12/24 08:56:23;;;;;;;30.13;19.57;;;;;;;5.68;100.00;97841.47;2302716;77;20896;-83
2022/12/24 08:59:24;;;;;;;22.23;16.00;;;;;;;5.87;100.00;97851.66;2302647;77;21001;-82
2022/12/24 09:02:24;;;;;;;22.63;14.97;;;;;;;6.10;100.00;97852.48;2302690;77;20924;-83
2022/12/24 09:05:25;;;;;;;22.17;14.37;;;;;;;6.26;100.00;97859.18;2302541;77;20940;-84
2022/12/24 09:08:25;;;;;;;18.90;13.77;;;;;;;6.38;100.00;97847.67;2302834;77;21034;-83
2022/12/24 09:11:25;;;;;;;19.47;14.30;;;;;;;6.50;100.00;97858.61;2302945;77;20979;-84
2022/12/24 09:14:26;;;;;;;20.00;13.00;;;;;;;6.55;100.00;97856.95;2303094;77;20916;-82
2022/12/24 09:17:26;;;;;;;25.77;15.50;;;;;;;6.63;100.00;97867.41;2303176;77;20948;-83
2022/12/24 09:20:27;;;;;;;23.07;12.33;;;;;;;6.68;100.00;97862.72;2303112;77;21267;-85
2022/12/24 09:23:27;;;;;;;17.80;12.00;;;;;;;6.74;100.00;97869.70;2302673;77;20987;-83
2022/12/24 09:26:31;;;;;;;16.90;12.80;;;;;;;6.77;100.00;97864.97;2302771;77;20979;-84
2022/12/24 09:29:28;;;;;;;18.43;13.10;;;;;;;6.80;100.00;97872.78;2302602;77;21320;-83
2022/12/24 09:32:28;;;;;;;19.57;14.13;;;;;;;6.82;100.00;97874.55;2302775;77;20908;-83
2022/12/24 09:35:29;;;;;;;19.53;13.23;;;;;;;6.82;100.00;97874.55;2302910;77;21006;-83
2022/12/24 09:38:29;;;;;;;19.30;14.03;;;;;;;6.83;100.00;97871.09;2281977;77;21105;-83
2022/12/24 09:41:30;;;;;;;21.40;14.33;;;;;;;6.84;100.00;97878.45;2282084;78;20966;-84
2022/12/24 09:44:30;;;;;;;25.93;16.27;;;;;;;6.83;100.00;97874.98;2282026;78;20964;-83
2022/12/24 09:47:30;;;;;;;31.40;18.37;;;;;;;6.86;100.00;97880.63;2282077;78;20942;-83
2022/12/24 09:50:31;;;;;;;26.40;18.67;;;;;;;6.86;100.00;97883.23;2282155;78;20970;-83
2022/12/24 09:53:31;;;;;;;27.30;20.93;;;;;;;6.88;100.00;97887.58;2281407;78;20950;-84
2022/12/24 09:56:32;;;;;;;34.13;22.53;;;;;;;6.92;100.00;97891.08;2282113;78;20978;-83
2022/12/24 09:59:32;;;;;;;30.20;21.07;;;;;;;6.97;100.00;97894.20;2282406;78;21021;-83
2022/12/24 10:02:32;;;;;;;20.97;16.07;;;;;;;7.01;100.00;97893.38;2282287;78;20968;-84
2022/12/24 10:05:33;;;;;;;21.07;14.87;;;;;;;7.03;100.00;97889.50;2282275;78;21337;-84
2022/12/24 10:08:33;;;;;;;16.80;13.63;;;;;;;7.07;100.00;97898.19;2282371;78;20993;-84
2022/12/24 10:11:34;;;;;;;21.33;16.97;;;;;;;7.09;100.00;97904.27;2282386;78;20965;-84
2022/12/24 10:14:34;;;;;;;31.30;22.63;;;;;;;7.12;100.00;97905.59;2282323;78;21392;-85
2022/12/24 10:17:34;;;;;;;26.57;20.67;;;;;;;7.12;100.00;97914.67;2282344;78;20939;-84
2022/12/24 10:20:35;;;;;;;21.70;16.47;;;;;;;7.10;100.00;97910.77;2282072;78;21004;-84
2022/12/24 10:23:35;;;;;;;14.27;12.20;;;;;;;7.10;100.00;97913.79;2282143;78;21266;-84
2022/12/24 10:26:36;;;;;;;14.63;11.07;;;;;;;7.10;100.00;97920.28;2282268;78;20898;-84
2022/12/24 10:29:36;;;;;;;13.93;12.37;;;;;;;7.08;100.00;97921.98;2281834;78;20902;-86
2022/12/24 10:32:36;;;;;;;16.00;14.13;;;;;;;7.08;100.00;97931.07;2281750;78;20941;-84
2022/12/24 10:35:41;;;;;;;13.53;12.13;;;;;;;7.10;100.00;97931.95;2280988;78;20989;-85
2022/12/24 10:38:39;;;;;;;14.20;11.33;;;;;;;7.12;100.00;97940.63;2267254;78;21008;-84
2022/12/24 10:41:39;;;;;;;10.00;9.00;;;;;;;7.12;100.00;97940.63;2291134;78;20975;-83
2022/12/24 10:44:40;;;;;;;9.67;8.70;;;;;;;7.11;100.00;97951.44;2291363;78;20940;-86
2022/12/24 10:47:40;;;;;;;8.80;7.90;;;;;;;7.11;100.00;97951.44;2290407;78;20976;-85
2022/12/24 10:50:41;;;;;;;9.70;6.23;;;;;;;7.17;100.00;97954.53;2290880;78;21358;-84
2022/12/24 10:53:41;;;;;;;7.57;6.83;;;;;;;7.23;100.00;97955.89;2291127;78;21357;-84
2022/12/24 10:56:41;;;;;;;7.30;6.60;;;;;;;7.28;100.00;97958.11;2290971;78;20987;-83
2022/12/24 10:59:42;;;;;;;7.17;6.57;;;;;;;7.31;100.00;97964.63;2291291;78;20893;-83
2022/12/24 11:02:42;;;;;;;8.43;6.97;;;;;;;7.38;100.00;97974.66;2291418;78;20957;-84
2022/12/24 11:05:43;;;;;;;9.33;8.00;;;;;;;7.50;100.00;97978.24;2291151;78;20936;-84
2022/12/24 11:08:43;;;;;;;10.27;9.17;;;;;;;7.61;100.00;97975.33;2291022;78;21010;-83
2022/12/24 11:11:43;;;;;;;8.67;7.77;;;;;;;7.72;100.00;97987.54;2290943;78;21336;-85
2022/12/24 11:14:44;;;;;;;10.73;9.07;;;;;;;7.74;100.00;97987.13;2290858;78;20920;-84
2022/12/24 11:17:44;;;;;;;13.07;10.63;;;;;;;7.71;100.00;97988.40;2290828;78;20900;-85
2022/12/24 11:20:45;;;;;;;11.93;10.63;;;;;;;7.66;100.00;97993.12;2291188;78;20964;-85
2022/12/24 11:23:45;;;;;;;13.50;10.73;;;;;;;7.61;100.00;97998.70;2291174;78;20904;-85
2022/12/24 11:26:45;;;;;;;11.60;10.10;;;;;;;7.54;100.00;97999.92;2290681;78;20924;-87
2022/12/24 11:29:46;;;;;;;16.80;11.57;;;;;;;7.47;100.00;98004.18;2290532;78;20956;-86
2022/12/24 11:32:46;;;;;;;12.90;10.27;;;;;;;7.39;100.00;98007.13;2290888;78;20983;-84
2022/12/24 11:35:47;;;;;;;13.47;10.87;;;;;;;7.30;100.00;98003.13;2290977;78;20972;-85
2022/12/24 11:38:47;;;;;;;16.20;12.97;;;;;;;7.20;100.00;98013.83;2281027;78;21459;-84
2022/12/24 11:41:48;;;;;;;17.50;13.30;;;;;;;7.14;100.00;98018.95;2280986;78;20939;-85
2022/12/24 11:44:48;;;;;;;16.83;13.87;;;;;;;7.13;100.00;98027.59;2281061;78;20942;-84
2022/12/24 11:47:48;;;;;;;17.60;13.40;;;;;;;7.12;100.00;98035.35;2279515;78;20934;-82
2022/12/24 11:50:49;;;;;;;17.30;14.43;;;;;;;7.10;100.00;98047.02;2281008;78;20926;-86
2022/12/24 11:53:49;;;;;;;21.50;15.83;;;;;;;7.07;100.00;98046.98;2280833;78;20993;-84
2022/12/24 11:56:49;;;;;;;22.03;15.10;;;;;;;7.13;100.00;98056.13;2280563;78;21410;-85
2022/12/24 11:59:51;;;;;;;17.80;15.17;;;;;;;7.13;100.00;98057.44;2280915;78;20950;-85
2022/12/24 12:02:50;;;;;;;21.83;15.73;;;;;;;7.07;100.00;98061.25;2280778;78;20930;-85
2022/12/24 12:05:51;;;;;;;20.27;16.87;;;;;;;7.03;100.00;98065.52;2279975;78;21416;-85
2022/12/24 12:08:51;;;;;;;19.90;16.43;;;;;;;6.97;100.00;98070.63;2280729;78;20997;-85
2022/12/24 12:11:51;;;;;;;21.57;16.57;;;;;;;6.90;100.00;98085.63;2280812;78;20969;-85
2022/12/24 12:14:52;;;;;;;24.73;18.87;;;;;;;6.86;100.00;98087.73;2281119;78;21333;-85
2022/12/24 12:17:52;;;;;;;22.63;17.43;;;;;;;6.86;100.00;98092.05;2280619;78;20997;-85
2022/12/24 12:20:53;;;;;;;23.50;17.37;;;;;;;6.86;100.00;98100.70;2281159;78;20994;-86
2022/12/24 12:23:53;;;;;;;25.17;18.70;;;;;;;6.83;100.00;98100.66;2281099;78;21310;-86
2022/12/24 12:26:53;;;;;;;30.37;20.77;;;;;;;6.78;100.00;98107.94;2281097;78;20934;-87
2022/12/24 12:29:54;;;;;;;27.77;18.07;;;;;;;6.70;100.00;98120.36;2281207;78;20970;-86
2022/12/24 12:32:54;;;;;;;30.13;19.60;;;;;;;6.62;100.00;98124.55;2281121;78;20910;-87
2022/12/24 12:35:55;;;;;;;28.40;18.43;;;;;;;6.58;100.00;98137.02;2281104;78;20977;-86
2022/12/24 12:38:55;;;;;;;23.47;18.03;;;;;;;6.55;100.00;98145.17;2251457;77;21011;-87
2022/12/24 12:41:55;;;;;;;25.70;18.50;;;;;;;6.50;100.00;98154.59;2249136;79;20960;-86
2022/12/24 12:44:56;;;;;;;26.90;19.20;;;;;;;6.48;100.00;98153.28;2248740;79;21308;-86
2022/12/24 12:47:59;;;;;;;23.70;17.87;;;;;;;6.48;100.00;98157.16;2248715;79;20995;-87
2022/12/24 12:50:57;;;;;;;25.70;19.37;;;;;;;6.51;100.00;98170.61;2248431;79;20988;-86
2022/12/24 12:53:57;;;;;;;27.83;21.07;;;;;;;6.51;100.00;98179.68;2248632;79;21004;-86
2022/12/24 12:56:57;;;;;;;24.53;19.33;;;;;;;6.51;100.00;98188.33;2248792;79;21034;-84
2022/12/24 12:59:58;;;;;;;27.70;20.00;;;;;;;6.53;100.00;98193.12;2248807;79;20972;-86
2022/12/24 13:02:58;;;;;;;28.60;20.10;;;;;;;6.55;100.00;98200.92;2248589;79;21030;-88
2022/12/24 13:05:59;;;;;;;27.73;20.90;;;;;;;6.52;100.00;98206.93;2249295;79;20963;-87
2022/12/24 13:08:59;;;;;;;30.23;21.33;;;;;;;6.49;100.00;98219.84;2249180;79;20960;-85
2022/12/24 13:11:59;;;;;;;26.00;19.13;;;;;;;6.49;100.00;98221.56;2249983;79;20995;-87
2022/12/24 13:15:00;;;;;;;28.13;21.10;;;;;;;6.48;100.00;98225.00;2248859;79;20920;-87
2022/12/24 13:18:00;;;;;;;37.50;25.13;;;;;;;6.48;100.00;98227.17;2248205;79;20940;-85
2022/12/24 13:21:01;;;;;;;47.57;29.30;;;;;;;6.54;100.00;98228.58;2247872;79;20956;-85
2022/12/24 13:24:01;;;;;;;46.10;29.33;;;;;;;6.52;100.00;98234.16;2248793;79;21288;-86
2022/12/24 13:27:01;;;;;;;39.97;26.77;;;;;;;6.49;100.00;98243.17;2248645;79;20921;-87
2022/12/24 13:30:03;;;;;;;41.90;26.93;;;;;;;6.46;100.00;98249.59;2248535;79;20916;-86
2022/12/24 13:33:02;;;;;;;34.77;25.87;;;;;;;6.46;100.00;98259.09;2248259;79;20944;-86
2022/12/24 13:36:03;;;;;;;37.23;26.20;;;;;;;6.49;100.00;98266.93;2248516;79;20928;-87
2022/12/24 13:39:03;;;;;;;33.33;23.80;;;;;;;6.49;100.00;98266.93;2284883;77;21412;-87
2022/12/24 13:42:03;;;;;;;34.87;25.73;;;;;;;6.51;100.00;98275.61;2290837;78;20944;-87
2022/12/24 13:45:04;;;;;;;39.37;26.97;;;;;;;6.73;100.00;98279.05;2291142;78;20967;-86
2022/12/24 13:48:04;;;;;;;45.37;29.33;;;;;;;6.73;100.00;98287.25;2290896;78;21315;-86
2022/12/24 13:51:05;;;;;;;47.33;31.03;;;;;;;6.64;100.00;98294.02;2290735;78;20971;-86
2022/12/24 13:54:05;;;;;;;48.97;32.83;;;;;;;6.59;100.00;98298.67;2290971;78;20924;-84
2022/12/24 13:57:05;;;;;;;48.87;33.70;;;;;;;6.57;100.00;98293.87;2291299;78;20969;-86
2022/12/24 14:00:07;;;;;;;42.03;30.50;;;;;;;6.56;100.00;98301.20;2291842;78;20885;-87
2022/12/24 14:03:06;;;;;;;46.47;31.60;;;;;;;6.55;100.00;98307.23;2291519;78;20944;-86
2022/12/24 14:06:07;;;;;;;45.87;31.10;;;;;;;6.51;100.00;98308.02;2291603;78;20979;-86